SondeTracker

Meteorological Radiosondes Database

Operations

Sounding was ended - last measurement: 2022-12-06 13:34:41z

MAP
About Radiosonde

Number: U3034894

Launch Site:

Type: RS41

AUX: NO

Frequency: 403.401 MHz

Max Speed: 222 km/h at 33323 m

Average Speed: 102.95 km/h

Max Altitude: 34863 m

Average Ascent Speed: 5.55 m/s

Average Descent Speed: 14.54 m/s

Status: UNKNOWN

Status Changes
Launch Site Type AUX Frequency Status Finder Landing Point Description Changes made by
APRS Statistics

Received Frames: 61

First Frame [UTC]: 2022-12-06 12:01:31z

Last Frame [UTC]: 2022-12-06 13:34:41z

Receivers: N4XWC-2

Flight Time: 01:33:10 h

Distance From First Measurement: 156.08 km

Nearest City: Selma [AL] (US) [54.45 km]

Nearest Hunter: [0.00 km]

Ground Altitude: 55 m

Distance from QTH: 0.00 km

APRS Data
Receiver Number Date/Time [UTC] φ λ Course [°] Speed [km/h] Altitude [m] Description
N4XWC-2U30348942022-12-06 13:34:4132.2335-87.57149522066Clb=-5.7m/s t=10.4C h=61.4% p=-1.0hPa 403.401 MHz Type=RS41-NG ser=U3034894 Radiosonde
N4XWC-2U30348942022-12-06 13:33:4032.2303-87.576764332353Clb=-5.7m/s t=9.1C h=53.5% p=-1.0hPa 403.401 MHz Type=RS41-NG ser=U3034894 Radiosonde
N4XWC-2U30348942022-12-06 13:32:3932.2284-87.581451312672Clb=-5.7m/s t=7.5C h=80.2% p=-1.0hPa 403.401 MHz Type=RS41-NG ser=U3034894 Radiosonde
N4XWC-2U30348942022-12-06 13:31:3732.2252-87.587565442992Clb=-5.7m/s t=7.5C h=60.5% p=-1.0hPa 403.401 MHz Type=RS41-NG ser=U3034894 Radiosonde
N4XWC-2U30348942022-12-06 13:30:3632.2223-87.595361483326Clb=-5.6m/s t=5.5C h=56.2% p=-1.0hPa 403.401 MHz Type=RS41-NG ser=U3034894 Radiosonde
N4XWC-2U30348942022-12-06 13:29:3532.2193-87.60577573678Clb=-5.9m/s t=3.2C h=68.2% p=-1.0hPa 403.401 MHz Type=RS41-NG ser=U3034894 Radiosonde
N4XWC-2U30348942022-12-06 13:28:3432.2178-87.615181573996Clb=-6.1m/s t=0.9C h=73.6% p=-1.0hPa 403.401 MHz Type=RS41-NG ser=U3034894 Radiosonde
N4XWC-2U30348942022-12-06 13:27:3432.2172-87.625890654333Clb=-5.9m/s t=-1.5C h=71.5% p=-1.0hPa 403.401 MHz Type=RS41-NG ser=U3034894 Radiosonde
N4XWC-2U30348942022-12-06 13:26:3232.2174-87.637391594681Clb=-5.7m/s t=-4.3C h=78.0% p=-1.0hPa 403.401 MHz Type=RS41-NG ser=U3034894 Radiosonde
N4XWC-2U30348942022-12-06 13:25:3532.2172-87.648484675027Clb=-6.1m/s t=-6.7C h=85.8% p=-1.0hPa 403.401 MHz Type=RS41-NG ser=U3034894 Radiosonde
N4XWC-2U30348942022-12-06 13:24:3232.2165-87.660991725399Clb=-6.2m/s t=-7.1C h=69.6% p=-1.0hPa 403.401 MHz Type=RS41-NG ser=U3034894 Radiosonde
N4XWC-2U30348942022-12-06 13:22:5032.2611-87.91599611112472Clb=-9.5m/s t=-59.8C h=20.6% p=-1.0hPa 403.401 MHz Type=RS41-NG ser=U3034894 Radiosonde
N4XWC-2U30348942022-12-06 13:21:3232.263-87.93679711713028Clb=-9.8m/s t=-64.3C h=24.8% p=-1.0hPa 403.401 MHz Type=RS41-NG ser=U3034894 Radiosonde
N4XWC-2U30348942022-12-06 13:20:1332.2648-87.96029513313622Clb=-10.4m/s t=-66.5C h=20.5% p=-1.0hPa 403.401 MHz Type=RS41-NG ser=U3034894 Radiosonde
N4XWC-2U30348942022-12-06 13:18:4732.2687-87.98369810714261Clb=-11.5m/s t=-68.6C h=12.2% p=-1.0hPa 403.401 MHz Type=RS41-NG ser=U3034894 Radiosonde
N4XWC-2U30348942022-12-06 13:17:2332.2695-88.00279611514934Clb=-11.7m/s t=-70.2C h=10.0% p=-1.0hPa 403.401 MHz Type=RS41-NG ser=U3034894 Radiosonde
N4XWC-2U30348942022-12-06 13:16:0532.2724-88.021910610615656Clb=-12.0m/s t=-70.1C h=8.7% p=-1.0hPa 403.401 MHz Type=RS41-NG ser=U3034894 Radiosonde
N4XWC-2U30348942022-12-06 13:14:4132.2754-88.04029210716415Clb=-12.6m/s t=-73.0C h=9.1% p=-1.0hPa 403.401 MHz Type=RS41-NG ser=U3034894 Radiosonde
N4XWC-2U30348942022-12-06 13:13:1732.2778-88.061510211317211Clb=-13.4m/s t=-73.6C h=7.6% p=-1.0hPa 403.401 MHz Type=RS41-NG ser=U3034894 Radiosonde
N4XWC-2U30348942022-12-06 13:12:0132.2809-88.080110110718076Clb=-14.6m/s t=-75.5C h=6.9% p=-1.0hPa 403.401 MHz Type=RS41-NG ser=U3034894 Radiosonde
N4XWC-2U30348942022-12-06 13:11:4932.2829-88.09671007618980Clb=-15.8m/s t=-73.5C h=4.9% p=-1.0hPa 403.401 MHz Type=RS41-NG ser=U3034894 Radiosonde
N4XWC-2U30348942022-12-06 13:11:3832.2833-88.1093936520029Clb=-17.4m/s t=-68.1C h=2.9% p=-1.0hPa 403.401 MHz Type=RS41-NG ser=U3034894 Radiosonde
N4XWC-2U30348942022-12-06 13:11:1232.2844-88.11991185721087Clb=-19.4m/s t=-66.1C h=2.4% p=-1.0hPa 403.401 MHz Type=RS41-NG ser=U3034894 Radiosonde
N4XWC-2U30348942022-12-06 13:09:3632.2856-88.12851034122368Clb=-22.5m/s t=-61.4C h=1.7% p=-1.0hPa 403.401 MHz Type=RS41-NG ser=U3034894 Radiosonde
N4XWC-2U30348942022-12-06 13:07:4632.2885-88.13551104323711Clb=-24.4m/s t=-58.3C h=1.6% p=-1.0hPa 403.401 MHz Type=RS41-NG ser=U3034894 Radiosonde
N4XWC-2U30348942022-12-06 13:06:0532.287-88.1451778525315Clb=-29.1m/s t=-54.9C h=1.2% p=-1.0hPa 403.401 MHz Type=RS41-NG ser=U3034894 Radiosonde
N4XWC-2U30348942022-12-06 13:04:3032.2862-88.16348911127196Clb=-32.9m/s t=-52.7C h=1.2% p=-1.0hPa 403.401 MHz Type=RS41-NG ser=U3034894 Radiosonde
N4XWC-2U30348942022-12-06 13:02:5032.2859-88.1826919829125Clb=-34.9m/s t=-48.6C h=0.8% p=-1.0hPa 403.401 MHz Type=RS41-NG ser=U3034894 Radiosonde
N4XWC-2U30348942022-12-06 13:01:1432.2866-88.20637914631111Clb=-27.6m/s t=-43.7C h=0.7% p=-1.0hPa 403.401 MHz Type=RS41-NG ser=U3034894 Radiosonde
N4XWC-2U30348942022-12-06 12:59:0932.2861-88.23368315032816Clb=-31.7m/s t=-34.9C h=0.4% p=-1.0hPa 403.401 MHz Type=RS41-NG ser=U3034894 Radiosonde
N4XWC-2U30348942022-12-06 12:57:0632.2845-88.26437122034863Clb=13.0m/s t=-40.2C h=0.5% p=-1.0hPa 403.401 MHz Type=RS41-NG ser=U3034894 Radiosonde
N4XWC-2U30348942022-12-06 12:55:1932.2785-88.29727620934476Clb=3.9m/s t=-38.8C h=0.5% p=-1.0hPa 403.401 MHz Type=RS41-NG ser=U3034894 Radiosonde
N4XWC-2U30348942022-12-06 12:53:2932.278-88.33018420234097Clb=9.4m/s t=-40.2C h=0.5% p=-1.0hPa 403.401 MHz Type=RS41-NG ser=U3034894 Radiosonde
N4XWC-2U30348942022-12-06 12:51:2932.2779-88.36168021533741Clb=3.3m/s t=-38.9C h=0.5% p=-1.0hPa 403.401 MHz Type=RS41-NG ser=U3034894 Radiosonde
N4XWC-2U30348942022-12-06 12:49:2932.2773-88.39229422233323Clb=9.0m/s t=-37.1C h=0.5% p=-1.0hPa 403.401 MHz Type=RS41-NG ser=U3034894 Radiosonde
N4XWC-2U30348942022-12-06 12:47:2032.2773-88.422410118732853Clb=12.9m/s t=-34.6C h=0.4% p=-1.0hPa 403.401 MHz Type=RS41-NG ser=U3034894 Radiosonde
N4XWC-2U30348942022-12-06 12:45:2332.2775-88.45288720632463Clb=1.2m/s t=-35.0C h=0.4% p=-1.0hPa 403.401 MHz Type=RS41-NG ser=U3034894 Radiosonde
N4XWC-2U30348942022-12-06 12:43:5732.277-88.48489221932155Clb=1.4m/s t=-35.6C h=0.5% p=-1.0hPa 403.401 MHz Type=RS41-NG ser=U3034894 Radiosonde
N4XWC-2U30348942022-12-06 12:43:4632.275-88.51719120631792Clb=10.4m/s t=-38.8C h=0.5% p=-1.0hPa 403.401 MHz Type=RS41-NG ser=U3034894 Radiosonde
N4XWC-2U30348942022-12-06 12:43:1432.2745-88.54959217431328Clb=11.8m/s t=-40.9C h=0.6% p=-1.0hPa 403.401 MHz Type=RS41-NG ser=U3034894 Radiosonde
N4XWC-2U30348942022-12-06 12:42:0032.2725-88.57728413930937Clb=3.3m/s t=-43.9C h=0.7% p=-1.0hPa 403.401 MHz Type=RS41-NG ser=U3034894 Radiosonde
N4XWC-2U30348942022-12-06 12:41:5232.2738-88.60169511130577Clb=6.0m/s t=-45.7C h=0.8% p=-1.0hPa 403.401 MHz Type=RS41-NG ser=U3034894 Radiosonde
N4XWC-2U30348942022-12-06 12:41:4832.2774-88.62568712630130Clb=4.6m/s t=-46.7C h=0.8% p=-1.0hPa 403.401 MHz Type=RS41-NG ser=U3034894 Radiosonde
N4XWC-2U30348942022-12-06 12:41:1632.2797-88.64679214329723Clb=7.7m/s t=-46.9C h=0.8% p=-1.0hPa 403.401 MHz Type=RS41-NG ser=U3034894 Radiosonde
N4XWC-2U30348942022-12-06 12:39:3232.2817-88.66838014629345Clb=1.9m/s t=-48.6C h=0.9% p=-1.0hPa 403.401 MHz Type=RS41-NG ser=U3034894 Radiosonde
N4XWC-2U30348942022-12-06 12:37:1332.2832-88.6885959428958Clb=7.8m/s t=-48.7C h=0.9% p=-1.0hPa 403.401 MHz Type=RS41-NG ser=U3034894 Radiosonde
N4XWC-2U30348942022-12-06 12:34:4532.2829-88.70898211928568Clb=5.5m/s t=-48.9C h=0.9% p=-1.0hPa 403.401 MHz Type=RS41-NG ser=U3034894 Radiosonde
N4XWC-2U30348942022-12-06 12:31:4832.2692-88.8885805224521Clb=4.0m/s t=-56.7C h=1.4% p=-1.0hPa 403.401 MHz Type=RS41-NG ser=U3034894 Radiosonde
N4XWC-2U30348942022-12-06 12:29:2532.2693-88.8994766724174Clb=7.3m/s t=-57.3C h=1.5% p=-1.0hPa 403.401 MHz Type=RS41-NG ser=U3034894 Radiosonde
N4XWC-2U30348942022-12-06 12:27:0932.2687-88.9081374323803Clb=8.1m/s t=-59.1C h=1.5% p=-1.0hPa 403.401 MHz Type=RS41-NG ser=U3034894 Radiosonde
N4XWC-2U30348942022-12-06 12:24:5032.2726-88.91711327023455Clb=4.6m/s t=-60.5C h=1.7% p=-1.0hPa 403.401 MHz Type=RS41-NG ser=U3034894 Radiosonde
N4XWC-2U30348942022-12-06 12:22:2632.274-88.9249944323134Clb=4.4m/s t=-60.8C h=1.8% p=-1.0hPa 403.401 MHz Type=RS41-NG ser=U3034894 Radiosonde
N4XWC-2U30348942022-12-06 12:19:2932.2748-88.93051244122804Clb=4.1m/s t=-60.5C h=1.8% p=-1.0hPa 403.401 MHz Type=RS41-NG ser=U3034894 Radiosonde
N4XWC-2U30348942022-12-06 12:16:5832.2796-88.93911254122385Clb=6.4m/s t=-62.4C h=-1.0% p=-1.0hPa 403.401 MHz Type=RS41-NG ser=U3034894 Radiosonde
N4XWC-2U30348942022-12-06 12:15:5732.2814-88.94441035222182Clb=4.8m/s t=-62.5C h=-1.0% p=-1.0hPa 403.401 MHz Type=RS41-NG ser=U3034894 Radiosonde
N4XWC-2U30348942022-12-06 12:15:5032.2813-88.9559887221896Clb=4.7m/s t=-66.2C h=-1.0% p=-1.0hPa 403.401 MHz Type=RS41 ser=U3034894 Radiosonde
N4XWC-2U30348942022-12-06 12:15:4432.2826-88.96521205921579Clb=7.1m/s t=-66.5C h=-1.0% p=-1.0hPa 403.401 MHz Type=RS41 ser=U3034894 Radiosonde
N4XWC-2U30348942022-12-06 12:14:4232.2872-88.97551045721215Clb=3.6m/s t=-65.3C h=-1.0% p=-1.0hPa 403.401 MHz Type=RS41 ser=U3034894 Radiosonde
N4XWC-2U30348942022-12-06 12:12:2632.2898-88.9862846320891Clb=4.0m/s t=-273.0C h=-1.0% p=-1.0hPa 403.401 MHz Type=RS41 ser=U3034894 Radiosonde
N4XWC-2U30348942022-12-06 12:08:4932.302-89.15959810717370Clb=6.1m/s t=-273.0C h=-1.0% p=-1.0hPa 403.401 MHz Type=RS41 ser=U3034894 Radiosonde
N4XWC-2U30348942022-12-06 12:01:3132.3051-89.22898910216342Clb=5.1m/s t=-273.0C h=-1.0% p=-1.0hPa 403.401 MHz Type=RS41 ser=U3034894 Radiosonde